Time;durP1;ratioP1;P1;durP2;ratioP2;P2;SDS_P1;SDS_P2;PMS_P1;PMS_P2;Temp;Humidity;BMP_temperature;BMP_pressure;BME280_temperature;BME280_humidity;BME280_pressure;Samples;Min_cycle;Max_cycle;Signal;HPM_P1;HPM_P2
2022/10/05 00:00:53;;;;;;;4.23;2.40;;;;;;;3.28;86.25;96635.48;1693028;83;21064;-72
2022/10/05 00:03:26;;;;;;;3.10;2.37;;;;;;;3.30;86.83;96633.38;1721571;83;21041;-72
2022/10/05 00:05:53;;;;;;;2.40;2.00;;;;;;;3.30;86.49;96636.39;1721908;82;21028;-72
2022/10/05 00:08:26;;;;;;;2.47;1.40;;;;;;;3.23;85.94;96634.06;1721886;83;20977;-72
2022/10/05 00:10:53;;;;;;;2.10;1.90;;;;;;;3.17;86.05;96634.75;1693271;83;21044;-72
2022/10/05 00:13:23;;;;;;;2.57;2.30;;;;;;;3.14;86.77;96635.98;1721720;83;20996;-72
2022/10/05 00:16:12;;;;;;;3.03;2.00;;;;;;;3.07;85.82;96642.30;1721513;83;20993;-73
2022/10/05 00:18:39;;;;;;;2.23;1.93;;;;;;;2.93;86.82;96634.98;1721815;82;21486;-72
2022/10/05 00:21:25;;;;;;;2.47;1.30;;;;;;;2.85;87.31;96642.11;1721402;83;21036;-72
2022/10/05 00:23:55;;;;;;;3.00;0.90;;;;;;;2.81;87.04;96636.82;1700285;83;21001;-72
2022/10/05 00:26:26;;;;;;;4.87;2.10;;;;;;;2.87;87.17;96637.83;1721893;83;21085;-72
2022/10/05 00:28:54;;;;;;;4.23;2.07;;;;;;;2.83;87.15;96642.52;1721268;83;21084;-72
2022/10/05 00:31:29;;;;;;;3.97;1.63;;;;;;;2.79;86.92;96641.10;1721684;83;21032;-72
2022/10/05 00:33:56;;;;;;;1.17;1.07;;;;;;;2.73;87.52;96636.16;1721879;82;21494;-71
2022/10/05 00:36:25;;;;;;;3.83;1.00;;;;;;;2.75;87.22;96642.30;1721752;83;21048;-72
2022/10/05 00:38:52;;;;;;;1.60;1.40;;;;;;;2.81;87.48;96645.07;1721413;83;21084;-73
2022/10/05 00:41:59;;;;;;;2.43;1.03;;;;;;;2.93;87.88;96645.84;1721781;83;21036;-72
2022/10/05 00:45:01;;;;;;;4.67;1.20;;;;;;;2.99;87.99;96650.78;1694483;83;21045;-72
2022/10/05 00:47:55;;;;;;;2.70;1.70;;;;;;;2.95;87.31;96654.59;1721647;83;21119;-72
2022/10/05 00:50:39;;;;;;;3.90;1.50;;;;;;;2.88;86.45;96652.23;1618161;87;21086;-72
2022/10/05 00:53:26;;;;;;;1.87;1.00;;;;;;;2.78;87.37;96652.80;1665994;86;21126;-71
2022/10/05 00:56:16;;;;;;;3.93;1.13;;;;;;;2.79;87.18;96655.44;1695068;83;21521;-71
2022/10/05 00:59:17;;;;;;;3.70;1.50;;;;;;;2.78;87.06;96653.69;1712332;83;21047;-72
2022/10/05 01:01:57;;;;;;;6.40;1.33;;;;;;;2.91;87.79;96656.22;1712620;84;21550;-73
2022/10/05 01:04:35;;;;;;;3.20;1.17;;;;;;;2.99;87.45;96656.42;1712584;83;21502;-72
2022/10/05 01:07:18;;;;;;;2.07;1.50;;;;;;;2.93;86.30;96657.57;1712638;84;21005;-72
2022/10/05 01:10:02;;;;;;;4.67;3.17;;;;;;;2.98;87.28;96658.58;1705688;84;21028;-72
2022/10/05 01:12:58;;;;;;;3.70;2.27;;;;;;;3.08;87.44;96667.12;1688439;83;21167;-72
2022/10/05 01:16:05;;;;;;;8.63;2.00;;;;;;;3.18;87.35;96662.62;1712164;83;21036;-72
2022/10/05 01:18:58;;;;;;;4.20;1.40;;;;;;;3.22;86.94;96667.48;1712510;84;21037;-72
2022/10/05 01:21:33;;;;;;;4.90;1.37;;;;;;;3.19;86.17;96660.89;1712802;83;21048;-72
2022/10/05 01:24:44;;;;;;;3.07;1.60;;;;;;;3.08;85.96;96671.46;1712804;83;21478;-72
2022/10/05 01:27:17;;;;;;;1.80;1.20;;;;;;;2.96;85.89;96672.87;1712579;84;21040;-71
2022/10/05 01:29:58;;;;;;;3.23;1.40;;;;;;;2.85;86.05;96677.30;1712483;83;21040;-72
2022/10/05 01:32:32;;;;;;;4.53;1.33;;;;;;;2.80;86.04;96682.41;1712943;83;21051;-72
2022/10/05 01:35:14;;;;;;;2.03;1.53;;;;;;;2.88;86.83;96678.72;1713047;83;21032;-71
2022/10/05 01:38:07;;;;;;;2.43;1.67;;;;;;;2.97;87.23;96676.35;1712705;83;21040;-72
2022/10/05 01:41:01;;;;;;;2.15;1.40;;;;;;;3.03;86.76;96676.11;1712481;83;21040;-73
2022/10/05 01:43:57;;;;;;;4.03;1.60;;;;;;;2.87;84.81;96678.23;1712897;83;21016;-71
2022/10/05 01:46:38;;;;;;;5.43;1.17;;;;;;;2.71;85.10;96674.31;1670035;86;21025;-72
2022/10/05 01:49:31;;;;;;;2.93;1.10;;;;;;;2.65;85.84;96675.02;1706509;83;21007;-73
2022/10/05 01:52:36;;;;;;;1.42;1.32;;;;;;;2.70;86.25;96673.44;1711644;83;21080;-72
2022/10/05 01:55:23;;;;;;;6.30;1.37;;;;;;;2.79;86.53;96671.08;1712626;83;21004;-72
2022/10/05 01:58:08;;;;;;;5.33;1.30;;;;;;;2.76;86.98;96668.81;1712588;83;21581;-72
2022/10/05 02:00:43;;;;;;;2.40;1.33;;;;;;;2.74;87.04;96671.79;1712738;84;21508;-72
2022/10/05 02:03:24;;;;;;;5.63;1.70;;;;;;;2.70;86.54;96673.86;1711762;83;21009;-71
2022/10/05 02:05:59;;;;;;;2.00;1.60;;;;;;;2.59;86.16;96671.80;1712732;83;21012;-71
2022/10/05 02:08:49;;;;;;;1.60;1.27;;;;;;;2.52;86.33;96671.18;1712588;84;21044;-71
2022/10/05 02:11:18;;;;;;;1.50;1.40;;;;;;;2.55;86.68;96661.27;1673634;83;21088;-72
2022/10/05 02:13:50;;;;;;;1.70;1.30;;;;;;;2.52;86.92;96659.84;1712339;84;21004;-71
2022/10/05 02:16:26;;;;;;;3.35;1.80;;;;;;;2.46;86.47;96663.59;1706836;84;21016;-71
2022/10/05 02:19:04;;;;;;;2.50;1.90;;;;;;;2.43;86.58;96661.77;1712460;84;21060;-71
2022/10/05 02:21:33;;;;;;;3.30;1.40;;;;;;;2.45;87.07;96653.59;1711763;83;21051;-72
2022/10/05 02:24:09;;;;;;;1.93;1.47;;;;;;;2.46;87.25;96657.08;1712730;84;21064;-72
2022/10/05 02:26:38;;;;;;;4.27;1.57;;;;;;;2.50;87.81;96660.25;1712683;84;21489;-72
2022/10/05 02:29:09;;;;;;;2.17;1.43;;;;;;;2.49;87.84;96656.73;1706368;83;21077;-72
2022/10/05 02:32:03;;;;;;;1.30;1.20;;;;;;;2.48;87.91;96669.31;1738153;82;20996;-72
2022/10/05 02:34:40;;;;;;;1.30;1.20;;;;;;;2.56;87.89;96667.80;1738163;82;21024;-72
2022/10/05 02:37:41;;;;;;;3.00;0.97;;;;;;;2.58;87.08;96679.59;1737028;82;21032;-73
2022/10/05 02:40:22;;;;;;;2.03;1.30;;;;;;;2.59;87.38;96682.22;1737874;82;21048;-72
2022/10/05 02:43:28;;;;;;;1.10;1.00;;;;;;;2.58;86.82;96690.01;1738246;82;21000;-72
2022/10/05 02:46:18;;;;;;;1.97;1.13;;;;;;;2.53;86.34;96683.78;1737302;82;21018;-72
2022/10/05 02:49:17;;;;;;;1.90;1.70;;;;;;;2.50;86.58;96685.87;1737422;83;21610;-72
2022/10/05 02:51:53;;;;;;;1.23;0.93;;;;;;;2.56;87.15;96686.47;1706746;84;21007;-73
2022/10/05 02:54:50;;;;;;;3.23;1.27;;;;;;;2.49;86.38;96698.41;1720394;83;20987;-73
2022/10/05 02:57:30;;;;;;;1.80;1.33;;;;;;;2.40;86.02;96700.76;1737358;83;21036;-72
2022/10/05 03:00:09;;;;;;;7.70;2.40;;;;;;;2.35;87.25;96699.73;1706781;84;21046;-72
2022/10/05 03:02:40;;;;;;;2.10;1.63;;;;;;;2.29;87.10;96706.03;1737333;83;21147;-72
2022/10/05 03:05:30;;;;;;;2.00;1.63;;;;;;;2.37;87.53;96711.09;1706387;84;21042;-72
2022/10/05 03:08:18;;;;;;;2.20;1.30;;;;;;;2.38;87.34;96712.42;1737508;83;21039;-72
2022/10/05 03:11:06;;;;;;;3.90;1.33;;;;;;;2.45;87.87;96717.41;1706727;84;21105;-72
2022/10/05 03:13:44;;;;;;;4.30;1.40;;;;;;;2.51;87.38;96723.22;1737555;83;21020;-71
2022/10/05 03:16:34;;;;;;;2.23;1.30;;;;;;;2.45;86.89;96721.32;1706782;84;21027;-73
2022/10/05 03:19:31;;;;;;;1.70;1.50;;;;;;;2.48;87.14;96718.80;1698562;83;21486;-73
2022/10/05 03:22:09;;;;;;;2.00;1.10;;;;;;;2.50;87.11;96721.47;1737296;83;21551;-72
2022/10/05 03:24:57;;;;;;;3.00;1.10;;;;;;;2.33;86.22;96721.81;1737731;82;21506;-72
2022/10/05 03:28:02;;;;;;;3.77;2.90;;;;;;;2.16;85.82;96727.78;1706354;84;21035;-73
2022/10/05 03:30:40;;;;;;;4.50;2.60;;;;;;;2.03;86.58;96724.75;1706668;84;21496;-73
2022/10/05 03:33:30;;;;;;;5.93;2.20;;;;;;;2.03;87.46;96723.02;1692435;83;21035;-72
2022/10/05 03:36:26;;;;;;;3.83;2.30;;;;;;;2.07;87.58;96725.33;1704401;84;21635;-72
2022/10/05 03:39:01;;;;;;;3.93;1.53;;;;;;;2.09;87.83;96724.94;1736785;83;21482;-72
2022/10/05 03:41:48;;;;;;;2.43;1.83;;;;;;;2.11;87.64;96726.75;1707354;83;21030;-73
2022/10/05 03:44:39;;;;;;;3.87;2.10;;;;;;;2.13;87.85;96729.41;1710410;83;21046;-72
2022/10/05 03:47:29;;;;;;;6.70;1.80;;;;;;;2.23;88.29;96735.38;1676544;84;21552;-72
2022/10/05 03:50:24;;;;;;;3.37;2.80;;;;;;;2.24;87.71;96731.92;1737676;83;21023;-73
2022/10/05 03:53:03;;;;;;;3.13;1.93;;;;;;;2.29;87.77;96728.17;1706714;84;21055;-72
2022/10/05 03:55:55;;;;;;;3.37;1.90;;;;;;;2.24;86.84;96724.55;1736547;83;20992;-72
2022/10/05 03:59:04;;;;;;;2.30;1.77;;;;;;;2.15;86.46;96737.74;1706446;84;21043;-73
2022/10/05 04:01:49;;;;;;;9.40;1.77;;;;;;;2.07;86.64;96738.34;1676152;86;21044;-72
2022/10/05 04:04:36;;;;;;;2.47;1.30;;;;;;;2.03;86.35;96736.47;1661080;86;21063;-72
2022/10/05 04:07:08;;;;;;;2.10;1.37;;;;;;;2.08;87.49;96741.40;1714218;83;20981;-72
2022/10/05 04:09:40;;;;;;;15.43;5.57;;;;;;;2.15;87.29;96740.77;1737471;83;21059;-72
2022/10/05 04:12:27;;;;;;;9.70;2.40;;;;;;;2.20;87.12;96739.63;1736548;83;21012;-73
2022/10/05 04:15:05;;;;;;;9.17;3.50;;;;;;;2.21;87.08;96740.08;1706154;84;21014;-72
2022/10/05 04:17:39;;;;;;;3.63;2.23;;;;;;;2.24;87.89;96736.26;1737585;83;21083;-72
2022/10/05 04:20:20;;;;;;;4.77;2.37;;;;;;;2.32;88.21;96746.10;1706807;83;20978;-72
2022/10/05 04:23:05;;;;;;;3.77;2.30;;;;;;;2.41;88.06;96747.22;1737028;83;21031;-72
2022/10/05 04:25:38;;;;;;;4.40;2.63;;;;;;;2.43;86.84;96737.73;1735267;82;21039;-72
2022/10/05 04:28:25;;;;;;;4.23;2.20;;;;;;;2.43;87.06;96739.05;1702740;84;21070;-72
2022/10/05 04:30:53;;;;;;;16.50;6.00;;;;;;;2.45;87.39;96749.09;1710341;83;21036;-72
2022/10/05 04:33:21;;;;;;;5.10;2.10;;;;;;;2.35;86.40;96747.49;1705253;83;21013;-72
2022/10/05 04:36:25;;;;;;;3.60;2.33;;;;;;;2.28;86.43;96753.77;1785128;80;20987;-72
2022/10/05 04:39:01;;;;;;;3.30;2.40;;;;;;;2.18;86.85;96764.72;1785039;80;21026;-73
2022/10/05 04:42:01;;;;;;;6.37;4.00;;;;;;;2.10;87.40;96767.07;1785266;80;21053;-73
2022/10/05 04:45:18;;;;;;;28.30;15.17;;;;;;;1.97;87.04;96768.39;1784943;80;21026;-72
2022/10/05 04:48:07;;;;;;;31.60;19.40;;;;;;;1.92;87.82;96759.54;1784988;80;21053;-72
2022/10/05 04:50:58;;;;;;;28.27;13.93;;;;;;;1.89;87.67;96759.02;1784837;80;21034;-72
2022/10/05 04:53:45;;;;;;;28.13;16.57;;;;;;;1.91;88.11;96761.66;1785324;80;21026;-73
2022/10/05 04:56:30;;;;;;;86.60;50.67;;;;;;;1.97;88.73;96764.48;1784456;80;20991;-73
2022/10/05 04:59:29;;;;;;;20.70;12.83;;;;;;;2.05;88.47;96766.04;1752261;80;21031;-72
2022/10/05 05:02:47;;;;;;;9.73;4.13;;;;;;;2.11;88.37;96778.82;1784691;80;21022;-73
2022/10/05 05:05:32;;;;;;;6.53;3.63;;;;;;;2.24;88.57;96784.01;1784930;80;20975;-71
2022/10/05 05:08:25;;;;;;;5.03;3.63;;;;;;;2.39;88.68;96783.63;1785457;80;20991;-72
2022/10/05 05:11:06;;;;;;;5.25;3.58;;;;;;;2.45;88.18;96789.47;1785770;80;21504;-72
2022/10/05 05:13:51;;;;;;;19.60;10.33;;;;;;;2.47;87.78;96787.38;1785326;80;21555;-73
2022/10/05 05:16:44;;;;;;;16.17;9.20;;;;;;;2.41;87.28;96792.37;1782144;80;21041;-73
2022/10/05 05:19:38;;;;;;;61.83;23.80;;;;;;;2.42;87.34;96782.45;1784289;80;21010;-73
2022/10/05 05:22:41;;;;;;;56.07;26.80;;;;;;;2.47;88.06;96786.47;1779480;80;21578;-73
2022/10/05 05:25:34;;;;;;;38.80;20.30;;;;;;;2.58;88.64;96785.11;1785328;80;21033;-73
2022/10/05 05:28:21;;;;;;;27.80;15.85;;;;;;;2.65;88.58;96780.56;1785674;80;21046;-72
2022/10/05 05:30:59;;;;;;;23.23;13.07;;;;;;;2.81;88.71;96781.48;1765881;80;21018;-72
2022/10/05 05:33:40;;;;;;;25.50;11.73;;;;;;;2.92;88.92;96771.36;1786918;80;21583;-73
2022/10/05 05:36:27;;;;;;;20.83;11.00;;;;;;;3.03;89.14;96770.41;1787402;80;21511;-72
2022/10/05 05:39:30;;;;;;;12.40;9.07;;;;;;;3.23;89.11;96773.59;1787727;80;21492;-72
2022/10/05 05:42:26;;;;;;;13.13;6.27;;;;;;;3.37;88.90;96773.55;1788016;80;21023;-72
2022/10/05 05:44:57;;;;;;;9.70;5.77;;;;;;;3.58;88.90;96775.89;1787432;80;21029;-72
2022/10/05 05:47:40;;;;;;;15.77;11.20;;;;;;;3.69;87.72;96775.73;1787525;80;21461;-73
2022/10/05 05:50:22;;;;;;;14.80;8.30;;;;;;;3.68;87.10;96783.13;1763479;80;21050;-72
2022/10/05 05:52:53;;;;;;;12.17;8.63;;;;;;;3.68;87.50;96775.72;1787532;80;21027;-72
2022/10/05 05:55:28;;;;;;;6.53;5.40;;;;;;;3.97;88.71;96784.73;1758300;80;21015;-72
2022/10/05 05:58:25;;;;;;;9.13;5.27;;;;;;;4.10;88.00;96788.99;1787778;80;21010;-73
2022/10/05 06:01:03;;;;;;;8.53;5.30;;;;;;;4.19;87.48;96798.81;1765104;80;21480;-72
2022/10/05 06:03:44;;;;;;;9.10;5.67;;;;;;;4.29;87.57;96796.89;1787744;80;20967;-72
2022/10/05 06:06:15;;;;;;;9.57;5.87;;;;;;;4.32;87.40;96793.47;1758234;80;21050;-73
2022/10/05 06:08:55;;;;;;;9.03;6.57;;;;;;;4.47;87.82;96795.58;1787659;80;21003;-72
2022/10/05 06:11:56;;;;;;;15.20;8.50;;;;;;;4.48;87.28;96792.98;1785040;80;21053;-73
2022/10/05 06:14:38;;;;;;;11.63;6.63;;;;;;;4.55;87.69;96784.45;1787719;80;21046;-72
2022/10/05 06:17:34;;;;;;;9.97;5.93;;;;;;;4.65;87.56;96784.24;1788263;80;21015;-72
2022/10/05 06:20:05;;;;;;;8.77;6.03;;;;;;;4.78;87.58;96797.17;1787671;80;21054;-73
2022/10/05 06:22:38;;;;;;;11.50;6.35;;;;;;;4.90;87.81;96797.89;1787842;80;21500;-73
2022/10/05 06:25:34;;;;;;;8.20;5.90;;;;;;;4.98;87.71;96785.86;1787859;80;21449;-73
2022/10/05 06:28:12;;;;;;;9.30;5.23;;;;;;;5.09;87.68;96792.63;1750308;80;21563;-71
2022/10/05 06:31:07;;;;;;;12.30;5.87;;;;;;;5.15;87.77;96789.73;1784500;80;21094;-72
2022/10/05 06:33:57;;;;;;;11.07;5.70;;;;;;;5.26;87.74;96787.34;1779165;80;21011;-71
2022/10/05 06:36:45;;;;;;;10.73;5.97;;;;;;;5.37;87.60;96791.08;1784235;80;21027;-70
2022/10/05 06:39:42;;;;;;;7.83;5.23;;;;;;;5.47;87.45;96791.25;1783900;80;21071;-70
2022/10/05 06:42:37;;;;;;;7.87;4.80;;;;;;;5.59;87.48;96788.48;1784840;80;20987;-70
2022/10/05 06:45:41;;;;;;;8.07;5.47;;;;;;;5.71;87.33;96786.94;1744849;80;21014;-71
2022/10/05 06:48:42;;;;;;;5.90;4.27;;;;;;;5.84;87.42;96791.11;1766413;80;21022;-73
2022/10/05 06:51:55;;;;;;;7.83;4.60;;;;;;;6.00;87.62;96801.95;1782600;80;21082;-71
2022/10/05 06:54:56;;;;;;;14.67;5.23;;;;;;;6.15;87.53;96806.55;1785102;80;21512;-73
2022/10/05 06:58:08;;;;;;;10.27;4.63;;;;;;;6.32;87.65;96802.49;1784851;80;20995;-71
2022/10/05 07:01:04;;;;;;;11.77;4.73;;;;;;;6.47;87.60;96805.38;1714575;80;21037;-73
2022/10/05 07:04:00;;;;;;;6.53;4.30;;;;;;;6.68;87.60;96808.80;1784302;80;20979;-74
2022/10/05 07:06:47;;;;;;;5.50;3.83;;;;;;;6.88;87.52;96815.67;1784986;80;21003;-74
2022/10/05 07:09:34;;;;;;;6.67;4.30;;;;;;;7.08;87.40;96813.34;1784878;80;21094;-71
2022/10/05 07:12:22;;;;;;;7.90;4.53;;;;;;;7.23;87.12;96808.75;1784797;80;21034;-71
2022/10/05 07:15:29;;;;;;;8.00;3.70;;;;;;;7.43;86.97;96810.73;1784617;80;21038;-70
2022/10/05 07:18:14;;;;;;;4.13;3.57;;;;;;;7.63;87.03;96807.93;1784850;80;21605;-74
2022/10/05 07:21:10;;;;;;;13.20;3.53;;;;;;;7.85;86.84;96804.26;1784970;80;21520;-72
2022/10/05 07:24:05;;;;;;;3.87;2.70;;;;;;;8.07;86.76;96797.06;1784748;80;21066;-71
2022/10/05 07:26:42;;;;;;;9.67;2.70;;;;;;;8.33;86.83;96800.37;1784402;80;20990;-70
2022/10/05 07:29:30;;;;;;;5.50;2.37;;;;;;;8.59;86.62;96801.95;1784750;80;21059;-70
2022/10/05 07:32:17;;;;;;;3.30;2.22;;;;;;;8.84;86.45;96797.36;1784464;80;21058;-71
2022/10/05 07:34:55;;;;;;;2.12;1.77;;;;;;;9.10;86.21;96788.75;1783388;80;21022;-70
2022/10/05 07:40:36;;;;;;;5.78;2.70;;;;;;;9.56;85.11;96790.30;1784936;80;20971;-70
2022/10/05 07:43:41;;;;;;;6.53;2.80;;;;;;;9.81;84.71;96800.95;1784956;80;20975;-71
2022/10/05 07:46:31;;;;;;;4.80;3.27;;;;;;;9.92;83.68;96801.42;1784600;80;21007;-70
2022/10/05 07:49:21;;;;;;;5.05;3.60;;;;;;;10.00;83.37;96800.56;1784841;80;21508;-72
2022/10/05 07:51:56;;;;;;;5.65;4.03;;;;;;;10.15;83.40;96793.60;1724579;80;21061;-71
2022/10/05 07:54:40;;;;;;;4.03;3.45;;;;;;;10.32;82.95;96794.96;1758569;80;21512;-71
2022/10/05 07:57:50;;;;;;;4.90;2.90;;;;;;;10.47;83.13;96792.78;1784678;80;21050;-71
2022/10/05 08:00:21;;;;;;;3.87;3.05;;;;;;;10.67;81.84;96783.56;1784360;80;21066;-70
2022/10/05 08:02:54;;;;;;;6.15;3.15;;;;;;;10.86;81.38;96777.85;1784839;80;21014;-71
2022/10/05 08:05:31;;;;;;;4.33;3.42;;;;;;;11.04;80.49;96779.59;1785017;80;21034;-71
2022/10/05 08:08:35;;;;;;;6.55;3.42;;;;;;;11.14;77.29;96772.09;1784837;80;21082;-71
2022/10/05 08:11:08;;;;;;;;;;;;;;;11.29;77.75;96767.63;1761349;80;21011;-71
2022/10/05 08:14:01;;;;;;;6.62;2.50;;;;;;;11.40;75.51;96773.33;1784775;80;20100;-70
2022/10/05 08:16:32;;;;;;;2.20;1.90;;;;;;;11.60;75.67;96781.20;1784948;80;21006;-71
2022/10/05 08:19:21;;;;;;;5.28;2.20;;;;;;;11.72;75.24;96798.80;1785034;80;21066;-71
2022/10/05 08:22:11;;;;;;;3.02;1.80;;;;;;;11.76;75.64;96807.13;1784619;80;21042;-72
2022/10/05 08:24:55;;;;;;;2.70;1.62;;;;;;;12.02;75.36;96811.45;1784493;80;21026;-71
2022/10/05 08:27:53;;;;;;;2.77;1.37;;;;;;;12.22;73.47;96812.67;1784805;80;21030;-71
2022/10/05 08:30:20;;;;;;;3.02;1.25;;;;;;;12.39;71.13;96804.20;1784605;80;20999;-71
2022/10/05 08:32:58;;;;;;;1.72;1.25;;;;;;;12.44;69.17;96815.63;1784578;80;21010;-72
2022/10/05 08:35:33;;;;;;;6.20;1.80;;;;;;;12.43;68.36;96809.92;1784020;80;21039;-71
2022/10/05 08:38:05;;;;;;;3.92;1.70;;;;;;;12.41;69.93;96804.20;1784483;80;21058;-71
2022/10/05 08:41:19;;;;;;;3.92;1.50;;;;;;;12.41;70.94;96812.14;1781685;80;21030;-72
2022/10/05 08:44:23;;;;;;;2.80;1.50;;;;;;;12.43;70.74;96816.98;1784765;80;21803;-71
2022/10/05 08:47:10;;;;;;;6.58;1.95;;;;;;;12.44;70.90;96822.25;1739903;80;21027;-71
2022/10/05 08:50:10;;;;;;;3.45;1.20;;;;;;;12.51;69.50;96825.75;1784857;80;21563;-71
2022/10/05 08:53:09;;;;;;;1.98;1.20;;;;;;;12.62;66.54;96829.64;1784925;80;21054;-71
2022/10/05 08:55:58;;;;;;;2.42;1.10;;;;;;;12.77;65.13;96831.76;1784636;80;21014;-71
2022/10/05 08:58:48;;;;;;;1.57;1.07;;;;;;;12.97;63.34;96846.59;1784551;80;21082;-71
2022/10/05 09:01:40;;;;;;;1.20;0.90;;;;;;;13.10;61.35;96844.30;1785031;80;20967;-72
2022/10/05 09:04:30;;;;;;;1.50;1.30;;;;;;;13.24;61.12;96836.67;1784751;80;21449;-71
2022/10/05 09:07:18;;;;;;;3.12;1.30;;;;;;;13.44;61.94;96841.82;1785111;80;21492;-71
2022/10/05 09:10:12;;;;;;;1.67;1.10;;;;;;;13.63;59.22;96849.58;1784840;80;21035;-71
2022/10/05 09:13:17;;;;;;;1.85;1.00;;;;;;;13.81;56.47;96838.34;1784699;80;21003;-71
2022/10/05 09:16:04;;;;;;;2.17;1.27;;;;;;;13.81;56.47;96838.34;1785022;80;21054;-71
2022/10/05 09:18:59;;;;;;;4.70;1.25;;;;;;;13.88;58.21;96847.08;1783763;80;20999;-71
2022/10/05 09:21:43;;;;;;;2.98;1.27;;;;;;;14.00;58.42;96852.25;1784683;80;21496;-71
2022/10/05 09:24:15;;;;;;;1.90;1.10;;;;;;;14.13;56.21;96852.52;1784615;80;21007;-71
2022/10/05 09:27:03;;;;;;;1.67;1.20;;;;;;;14.14;54.59;96858.28;1785137;80;21011;-71
2022/10/05 09:30:07;;;;;;;3.05;1.55;;;;;;;14.20;54.55;96835.63;1785099;80;21479;-70
2022/10/05 09:32:56;;;;;;;3.08;1.20;;;;;;;14.20;54.55;96791.83;1784146;80;21026;-70
2022/10/05 09:35:59;;;;;;;2.45;1.20;;;;;;;14.35;55.19;96817.28;1785072;80;21079;-70
2022/10/05 09:38:52;;;;;;;1.77;1.17;;;;;;;14.50;54.20;96826.81;1784652;80;21511;-70
2022/10/05 09:41:56;;;;;;;3.02;1.57;;;;;;;14.69;53.30;96816.39;1783989;80;21453;-71
2022/10/05 09:44:52;;;;;;;2.05;1.00;;;;;;;14.80;53.28;96792.77;1784781;80;21783;-71
2022/10/05 09:47:33;;;;;;;4.40;1.30;;;;;;;14.86;54.25;96793.52;1784903;80;21007;-71
2022/10/05 09:50:15;;;;;;;3.72;1.22;;;;;;;14.89;51.24;96778.88;1758264;80;21019;-71
2022/10/05 09:53:06;;;;;;;2.40;1.37;;;;;;;15.01;53.17;96773.79;1783329;80;21031;-70
2022/10/05 09:56:23;;;;;;;4.85;1.10;;;;;;;15.15;55.39;96765.59;1785012;80;20971;-71
2022/10/05 09:59:36;;;;;;;1.75;1.00;;;;;;;15.34;54.26;96765.66;1784863;80;20983;-70
2022/10/05 10:02:52;;;;;;;1.40;1.00;;;;;;;15.45;53.21;96769.47;1784951;80;21066;-70
2022/10/05 10:05:42;;;;;;;2.08;1.00;;;;;;;15.50;53.23;96774.70;1784411;80;20983;-71
2022/10/05 10:08:27;;;;;;;3.42;1.00;;;;;;;15.59;54.20;96775.84;1783005;80;21102;-71
2022/10/05 10:11:26;;;;;;;2.90;1.40;;;;;;;15.73;54.47;96770.30;1783731;80;20987;-71
2022/10/05 10:14:33;;;;;;;2.35;1.20;;;;;;;15.89;54.14;96772.17;1732037;80;20987;-71
2022/10/05 10:17:17;;;;;;;5.58;1.45;;;;;;;16.04;53.94;96777.18;1784626;80;21042;-71
2022/10/05 10:20:19;;;;;;;1.45;1.00;;;;;;;16.18;54.05;96783.55;1784652;80;21026;-72
2022/10/05 10:23:05;;;;;;;2.58;1.22;;;;;;;16.15;50.31;96780.94;1784876;80;21050;-72
2022/10/05 10:26:02;;;;;;;4.90;1.90;;;;;;;16.26;52.25;96788.25;1782999;80;21058;-73
2022/10/05 10:28:46;;;;;;;2.58;1.10;;;;;;;16.49;53.32;96790.86;1784860;80;21500;-72
2022/10/05 10:31:51;;;;;;;2.20;1.20;;;;;;;16.66;50.09;96795.34;1784592;80;21038;-72
2022/10/05 10:34:55;;;;;;;1.40;0.90;;;;;;;16.92;50.50;96792.08;1784597;80;20983;-72
2022/10/05 10:37:54;;;;;;;1.80;1.10;;;;;;;17.36;48.97;96781.19;1784742;80;21520;-72
2022/10/05 10:40:26;;;;;;;6.28;1.30;;;;;;;17.89;48.04;96785.55;1784755;80;21023;-71
2022/10/05 10:43:39;;;;;;;2.42;1.25;;;;;;;18.39;48.22;96772.49;1785336;80;21062;-72
2022/10/05 10:46:50;;;;;;;3.98;1.30;;;;;;;18.74;47.44;96767.84;1784958;80;21069;-72
2022/10/05 10:49:42;;;;;;;5.00;1.25;;;;;;;19.14;43.46;96763.89;1784369;80;21522;-72
2022/10/05 10:52:26;;;;;;;2.02;1.00;;;;;;;19.45;44.40;96767.72;1783173;80;21058;-72
2022/10/05 10:55:30;;;;;;;3.33;0.90;;;;;;;19.86;44.71;96760.06;1784777;80;21086;-73
2022/10/05 10:58:38;;;;;;;2.65;1.40;;;;;;;19.92;40.49;96759.82;1784995;80;21031;-72
2022/10/05 11:01:26;;;;;;;4.28;1.27;;;;;;;20.38;42.24;96751.84;1784800;80;21018;-72
2022/10/05 11:04:24;;;;;;;1.87;1.12;;;;;;;20.87;41.48;96753.95;1784625;80;21517;-73
2022/10/05 11:07:22;;;;;;;6.28;1.40;;;;;;;20.80;39.31;96751.11;1784995;80;21588;-73
2022/10/05 11:10:34;;;;;;;5.03;1.40;;;;;;;20.95;40.21;96749.13;1780193;80;20995;-73
2022/10/05 11:13:23;;;;;;;2.87;1.45;;;;;;;21.39;38.67;96749.98;1784944;80;21027;-73
2022/10/05 11:16:34;;;;;;;4.78;2.00;;;;;;;21.64;39.53;96748.89;1784855;80;21064;-73
2022/10/05 11:19:23;;;;;;;3.55;1.50;;;;;;;22.04;38.73;96752.00;1785029;80;20994;-73
2022/10/05 11:22:31;;;;;;;1.77;1.30;;;;;;;22.31;36.49;96745.48;1784460;80;21014;-73
2022/10/05 11:25:47;;;;;;;2.52;1.32;;;;;;;22.56;36.76;96742.02;1783837;80;21042;-73
2022/10/05 11:28:26;;;;;;;5.25;1.12;;;;;;;22.77;35.68;96743.27;1784978;80;21017;-73
2022/10/05 11:31:07;;;;;;;2.35;1.12;;;;;;;22.36;34.94;96747.48;1760558;80;20988;-73
2022/10/05 11:34:16;;;;;;;3.72;1.00;;;;;;;22.56;35.27;96742.50;1779346;81;21010;-73
2022/10/05 11:37:16;;;;;;;1.10;0.85;;;;;;;22.60;36.02;96739.59;1779394;80;21496;-73
2022/10/05 11:40:11;;;;;;;3.40;1.00;;;;;;;23.04;34.56;96739.25;1779117;80;21027;-73
2022/10/05 11:43:01;;;;;;;2.30;0.93;;;;;;;23.50;34.48;96744.11;1779463;80;21471;-72
2022/10/05 11:45:42;;;;;;;1.65;0.90;;;;;;;23.82;33.95;96737.56;1779227;80;21022;-73
2022/10/05 11:48:47;;;;;;;2.90;1.15;;;;;;;23.98;32.56;96740.68;1778955;81;21476;-72
2022/10/05 11:51:28;;;;;;;2.12;0.80;;;;;;;24.01;32.64;96751.77;1779123;81;21068;-73
2022/10/05 11:54:22;;;;;;;1.95;0.88;;;;;;;24.15;33.96;96741.61;1779491;80;20975;-73
2022/10/05 11:57:12;;;;;;;3.30;0.93;;;;;;;24.28;33.46;96737.28;1779399;81;21521;-73
2022/10/05 11:59:53;;;;;;;2.15;0.88;;;;;;;24.42;31.97;96745.97;1778745;81;21552;-73
2022/10/05 12:02:59;;;;;;;0.90;0.60;;;;;;;24.59;32.08;96749.09;1776288;81;21022;-72
2022/10/05 12:05:46;;;;;;;2.80;1.07;;;;;;;24.47;32.68;96747.97;1687108;84;21109;-73
2022/10/05 12:08:46;;;;;;;1.40;1.00;;;;;;;24.80;32.49;96744.33;1779025;81;21103;-73
2022/10/05 12:11:37;;;;;;;3.30;2.40;;;;;;;25.07;31.30;96734.23;1778409;81;21030;-73
2022/10/05 12:14:33;;;;;;;2.37;1.30;;;;;;;25.38;30.25;96736.91;1779076;81;20964;-73
2022/10/05 12:17:05;;;;;;;1.10;0.60;;;;;;;25.56;31.03;96737.64;1779348;80;20995;-72
2022/10/05 12:19:47;;;;;;;7.45;3.58;;;;;;;25.46;29.37;96743.20;1778286;81;21046;-73
2022/10/05 12:22:39;;;;;;;1.60;0.75;;;;;;;25.52;29.50;96741.47;1778857;81;21027;-73
2022/10/05 12:25:15;;;;;;;;;;;;;;;25.51;28.58;96745.15;1781930;81;21023;-73
2022/10/05 12:27:50;;;;;;;2.15;0.90;;;;;;;25.59;30.16;96752.80;1779031;81;20454;-73
2022/10/05 12:30:56;;;;;;;2.22;1.00;;;;;;;25.59;31.06;96750.09;1779383;80;21014;-73
2022/10/05 12:33:29;;;;;;;2.83;1.90;;;;;;;25.98;29.35;96736.48;1777481;81;21043;-72
2022/10/05 12:36:07;;;;;;;3.20;0.80;;;;;;;26.49;29.92;96739.59;1776071;81;21030;-72
2022/10/05 12:39:12;;;;;;;1.67;0.72;;;;;;;26.50;27.74;96733.20;1779673;80;21031;-72
2022/10/05 12:41:47;;;;;;;2.00;0.60;;;;;;;26.25;28.64;96733.89;1778757;80;21082;-72
2022/10/05 12:44:38;;;;;;;1.45;1.25;;;;;;;26.19;29.09;96740.56;1779569;80;21469;-73
2022/10/05 12:47:40;;;;;;;3.75;1.70;;;;;;;26.44;27.37;96735.81;1778911;81;21066;-73
2022/10/05 12:50:35;;;;;;;3.30;1.10;;;;;;;26.58;28.86;96732.73;1779425;80;21026;-73
2022/10/05 12:53:07;;;;;;;2.98;1.10;;;;;;;26.26;28.85;96739.70;1779050;81;21027;-73
2022/10/05 12:55:45;;;;;;;1.25;0.95;;;;;;;26.38;29.91;96742.95;1779116;80;20964;-73
2022/10/05 12:58:46;;;;;;;2.25;0.75;;;;;;;26.29;29.60;96740.86;1779410;81;21146;-73
2022/10/05 13:01:38;;;;;;;2.95;1.00;;;;;;;26.15;29.30;96735.44;1779458;80;21473;-73
2022/10/05 13:04:19;;;;;;;1.30;1.07;;;;;;;25.77;28.88;96738.16;1779475;81;20984;-72
2022/10/05 13:07:11;;;;;;;1.30;0.90;;;;;;;25.77;28.88;96738.16;1779517;81;21075;-72
2022/10/05 13:10:14;;;;;;;2.37;1.32;;;;;;;25.39;29.76;96741.83;1778464;81;21047;-72
2022/10/05 13:13:07;;;;;;;2.20;1.20;;;;;;;25.14;29.87;96735.12;1751163;81;20983;-72
2022/10/05 13:15:59;;;;;;;;;;;;;;;24.99;30.56;96738.23;1724981;81;21039;-72
2022/10/05 13:18:37;;;;;;;2.80;2.25;;;;;;;24.88;30.13;96737.14;1779539;81;20105;-72